sensor_id;sensor_type;location;lat;lon;timestamp;P1;durP1;ratioP1;P2;durP2;ratioP2
13349;SDS011;6744;53.190;6.576;2022-07-19T00:02:06;5.30;;;4.80;;
13349;SDS011;6744;53.190;6.576;2022-07-19T00:04:32;5.33;;;4.60;;
13349;SDS011;6744;53.190;6.576;2022-07-19T00:06:58;5.00;;;4.50;;
13349;SDS011;6744;53.190;6.576;2022-07-19T00:09:24;4.60;;;4.20;;
13349;SDS011;6744;53.190;6.576;2022-07-19T00:11:50;4.93;;;4.37;;
13349;SDS011;6744;53.190;6.576;2022-07-19T00:14:16;4.73;;;4.33;;
13349;SDS011;6744;53.190;6.576;2022-07-19T00:16:41;4.93;;;4.47;;
13349;SDS011;6744;53.190;6.576;2022-07-19T00:19:07;7.13;;;4.57;;
13349;SDS011;6744;53.190;6.576;2022-07-19T00:21:32;5.00;;;4.50;;
13349;SDS011;6744;53.190;6.576;2022-07-19T00:23:58;5.10;;;4.57;;
13349;SDS011;6744;53.190;6.576;2022-07-19T00:26:25;4.47;;;4.03;;
13349;SDS011;6744;53.190;6.576;2022-07-19T00:28:53;4.80;;;4.40;;
13349;SDS011;6744;53.190;6.576;2022-07-19T00:31:20;5.17;;;4.70;;
13349;SDS011;6744;53.190;6.576;2022-07-19T00:33:46;4.63;;;4.23;;
13349;SDS011;6744;53.190;6.576;2022-07-19T00:36:11;5.07;;;4.47;;
13349;SDS011;6744;53.190;6.576;2022-07-19T00:38:37;4.80;;;4.40;;
13349;SDS011;6744;53.190;6.576;2022-07-19T00:41:02;5.07;;;4.57;;
13349;SDS011;6744;53.190;6.576;2022-07-19T00:43:28;5.33;;;4.83;;
13349;SDS011;6744;53.190;6.576;2022-07-19T00:45:53;6.17;;;4.50;;
13349;SDS011;6744;53.190;6.576;2022-07-19T00:48:19;5.07;;;4.53;;
13349;SDS011;6744;53.190;6.576;2022-07-19T00:50:44;4.83;;;4.33;;
13349;SDS011;6744;53.190;6.576;2022-07-19T00:53:10;5.03;;;4.53;;
13349;SDS011;6744;53.190;6.576;2022-07-19T00:55:35;5.93;;;4.67;;
13349;SDS011;6744;53.190;6.576;2022-07-19T00:58:03;4.80;;;4.40;;
13349;SDS011;6744;53.190;6.576;2022-07-19T01:00:30;4.67;;;4.27;;
13349;SDS011;6744;53.190;6.576;2022-07-19T01:02:57;4.70;;;4.30;;
13349;SDS011;6744;53.190;6.576;2022-07-19T01:05:23;5.40;;;4.90;;
13349;SDS011;6744;53.190;6.576;2022-07-19T01:07:49;5.00;;;4.60;;
13349;SDS011;6744;53.190;6.576;2022-07-19T01:10:14;5.30;;;4.80;;
13349;SDS011;6744;53.190;6.576;2022-07-19T01:12:40;5.27;;;4.77;;
13349;SDS011;6744;53.190;6.576;2022-07-19T01:15:14;5.90;;;4.60;;
13349;SDS011;6744;53.190;6.576;2022-07-19T01:17:40;5.80;;;4.73;;
13349;SDS011;6744;53.190;6.576;2022-07-19T01:20:06;5.10;;;4.60;;
13349;SDS011;6744;53.190;6.576;2022-07-19T01:22:32;4.40;;;4.10;;
13349;SDS011;6744;53.190;6.576;2022-07-19T01:24:58;5.07;;;4.50;;
13349;SDS011;6744;53.190;6.576;2022-07-19T01:27:23;4.60;;;4.20;;
13349;SDS011;6744;53.190;6.576;2022-07-19T01:29:48;4.53;;;4.13;;
13349;SDS011;6744;53.190;6.576;2022-07-19T01:32:14;5.33;;;4.50;;
13349;SDS011;6744;53.190;6.576;2022-07-19T01:34:39;5.10;;;4.60;;
13349;SDS011;6744;53.190;6.576;2022-07-19T01:37:04;5.20;;;4.80;;
13349;SDS011;6744;53.190;6.576;2022-07-19T01:39:30;4.60;;;4.20;;
13349;SDS011;6744;53.190;6.576;2022-07-19T01:41:55;4.97;;;4.57;;
13349;SDS011;6744;53.190;6.576;2022-07-19T01:44:20;4.90;;;4.40;;
13349;SDS011;6744;53.190;6.576;2022-07-19T01:46:46;5.50;;;5.00;;
13349;SDS011;6744;53.190;6.576;2022-07-19T01:49:11;5.23;;;4.60;;
13349;SDS011;6744;53.190;6.576;2022-07-19T01:51:36;4.83;;;4.33;;
13349;SDS011;6744;53.190;6.576;2022-07-19T01:54:02;5.50;;;5.00;;
13349;SDS011;6744;53.190;6.576;2022-07-19T01:56:27;4.70;;;4.30;;
13349;SDS011;6744;53.190;6.576;2022-07-19T01:58:52;5.40;;;4.33;;
13349;SDS011;6744;53.190;6.576;2022-07-19T02:01:18;5.30;;;4.70;;
13349;SDS011;6744;53.190;6.576;2022-07-19T02:03:43;5.50;;;5.00;;
13349;SDS011;6744;53.190;6.576;2022-07-19T02:06:08;5.33;;;4.57;;
13349;SDS011;6744;53.190;6.576;2022-07-19T02:08:34;5.40;;;4.90;;
13349;SDS011;6744;53.190;6.576;2022-07-19T02:11:00;4.97;;;4.30;;
13349;SDS011;6744;53.190;6.576;2022-07-19T02:13:45;4.87;;;4.47;;
13349;SDS011;6744;53.190;6.576;2022-07-19T02:16:10;5.30;;;4.80;;
13349;SDS011;6744;53.190;6.576;2022-07-19T02:18:35;5.13;;;4.60;;
13349;SDS011;6744;53.190;6.576;2022-07-19T02:21:01;5.30;;;4.80;;
13349;SDS011;6744;53.190;6.576;2022-07-19T02:23:26;4.97;;;4.50;;
13349;SDS011;6744;53.190;6.576;2022-07-19T02:25:51;4.73;;;4.33;;
13349;SDS011;6744;53.190;6.576;2022-07-19T02:28:17;5.23;;;4.73;;
13349;SDS011;6744;53.190;6.576;2022-07-19T02:30:42;5.13;;;4.73;;
13349;SDS011;6744;53.190;6.576;2022-07-19T02:33:07;5.40;;;4.90;;
13349;SDS011;6744;53.190;6.576;2022-07-19T02:35:33;5.30;;;4.80;;
13349;SDS011;6744;53.190;6.576;2022-07-19T02:37:58;5.63;;;5.10;;
13349;SDS011;6744;53.190;6.576;2022-07-19T02:40:23;6.13;;;4.53;;
13349;SDS011;6744;53.190;6.576;2022-07-19T02:42:48;5.50;;;5.00;;
13349;SDS011;6744;53.190;6.576;2022-07-19T02:45:14;5.20;;;4.70;;
13349;SDS011;6744;53.190;6.576;2022-07-19T02:47:39;5.40;;;4.90;;
13349;SDS011;6744;53.190;6.576;2022-07-19T02:50:05;5.67;;;4.90;;
13349;SDS011;6744;53.190;6.576;2022-07-19T02:52:30;5.20;;;4.70;;
13349;SDS011;6744;53.190;6.576;2022-07-19T02:54:56;6.17;;;5.40;;
13349;SDS011;6744;53.190;6.576;2022-07-19T02:57:21;5.07;;;4.67;;
13349;SDS011;6744;53.190;6.576;2022-07-19T02:59:47;5.50;;;5.00;;
13349;SDS011;6744;53.190;6.576;2022-07-19T03:02:12;7.23;;;5.50;;
13349;SDS011;6744;53.190;6.576;2022-07-19T03:04:37;5.53;;;5.03;;
13349;SDS011;6744;53.190;6.576;2022-07-19T03:07:02;6.47;;;5.73;;
13349;SDS011;6744;53.190;6.576;2022-07-19T03:09:28;5.47;;;4.97;;
13349;SDS011;6744;53.190;6.576;2022-07-19T03:11:53;5.80;;;5.20;;
13349;SDS011;6744;53.190;6.576;2022-07-19T03:14:18;6.10;;;5.17;;
13349;SDS011;6744;53.190;6.576;2022-07-19T03:16:44;5.40;;;4.90;;
13349;SDS011;6744;53.190;6.576;2022-07-19T03:19:09;5.60;;;5.10;;
13349;SDS011;6744;53.190;6.576;2022-07-19T03:21:35;5.20;;;4.80;;
13349;SDS011;6744;53.190;6.576;2022-07-19T03:24:00;5.97;;;5.47;;
13349;SDS011;6744;53.190;6.576;2022-07-19T03:26:25;5.43;;;4.93;;
13349;SDS011;6744;53.190;6.576;2022-07-19T03:28:51;6.37;;;5.77;;
13349;SDS011;6744;53.190;6.576;2022-07-19T03:31:17;5.30;;;4.80;;
13349;SDS011;6744;53.190;6.576;2022-07-19T03:33:43;5.60;;;5.10;;
13349;SDS011;6744;53.190;6.576;2022-07-19T03:36:08;5.87;;;5.20;;
13349;SDS011;6744;53.190;6.576;2022-07-19T03:38:33;5.97;;;5.20;;
13349;SDS011;6744;53.190;6.576;2022-07-19T03:40:59;5.40;;;4.90;;
13349;SDS011;6744;53.190;6.576;2022-07-19T03:43:24;6.00;;;5.37;;
13349;SDS011;6744;53.190;6.576;2022-07-19T03:45:49;5.40;;;4.90;;
13349;SDS011;6744;53.190;6.576;2022-07-19T03:48:15;5.63;;;5.13;;
13349;SDS011;6744;53.190;6.576;2022-07-19T03:50:42;6.10;;;5.60;;
13349;SDS011;6744;53.190;6.576;2022-07-19T03:53:08;5.43;;;4.93;;
13349;SDS011;6744;53.190;6.576;2022-07-19T03:55:33;5.70;;;5.20;;
13349;SDS011;6744;53.190;6.576;2022-07-19T03:57:58;5.53;;;5.03;;
13349;SDS011;6744;53.190;6.576;2022-07-19T04:00:24;6.43;;;5.23;;
13349;SDS011;6744;53.190;6.576;2022-07-19T04:02:49;5.67;;;5.17;;
13349;SDS011;6744;53.190;6.576;2022-07-19T04:05:15;5.37;;;4.87;;
13349;SDS011;6744;53.190;6.576;2022-07-19T04:07:40;5.30;;;4.80;;
13349;SDS011;6744;53.190;6.576;2022-07-19T04:10:06;5.67;;;5.17;;
13349;SDS011;6744;53.190;6.576;2022-07-19T04:12:31;5.30;;;4.90;;
13349;SDS011;6744;53.190;6.576;2022-07-19T04:14:57;5.80;;;5.07;;
13349;SDS011;6744;53.190;6.576;2022-07-19T04:17:22;5.53;;;5.03;;
13349;SDS011;6744;53.190;6.576;2022-07-19T04:19:49;5.23;;;4.70;;
13349;SDS011;6744;53.190;6.576;2022-07-19T04:22:14;5.93;;;5.33;;
13349;SDS011;6744;53.190;6.576;2022-07-19T04:24:39;5.93;;;5.37;;
13349;SDS011;6744;53.190;6.576;2022-07-19T04:27:05;5.47;;;4.97;;
13349;SDS011;6744;53.190;6.576;2022-07-19T04:29:30;6.53;;;5.73;;
13349;SDS011;6744;53.190;6.576;2022-07-19T04:31:56;5.80;;;5.30;;
13349;SDS011;6744;53.190;6.576;2022-07-19T04:34:21;5.13;;;4.63;;
13349;SDS011;6744;53.190;6.576;2022-07-19T04:36:46;5.17;;;4.67;;
13349;SDS011;6744;53.190;6.576;2022-07-19T04:39:11;5.50;;;5.00;;
13349;SDS011;6744;53.190;6.576;2022-07-19T04:41:37;5.33;;;4.83;;
13349;SDS011;6744;53.190;6.576;2022-07-19T04:44:02;5.93;;;5.43;;
13349;SDS011;6744;53.190;6.576;2022-07-19T04:46:28;4.50;;;4.10;;
13349;SDS011;6744;53.190;6.576;2022-07-19T04:48:53;5.33;;;4.70;;
13349;SDS011;6744;53.190;6.576;2022-07-19T04:51:18;5.00;;;4.57;;
13349;SDS011;6744;53.190;6.576;2022-07-19T04:53:43;5.40;;;4.90;;
13349;SDS011;6744;53.190;6.576;2022-07-19T04:56:09;5.90;;;5.00;;
13349;SDS011;6744;53.190;6.576;2022-07-19T04:58:34;5.13;;;4.73;;
13349;SDS011;6744;53.190;6.576;2022-07-19T05:00:59;5.27;;;4.67;;
13349;SDS011;6744;53.190;6.576;2022-07-19T05:03:25;6.13;;;4.80;;
13349;SDS011;6744;53.190;6.576;2022-07-19T05:05:50;5.83;;;5.07;;
13349;SDS011;6744;53.190;6.576;2022-07-19T05:08:15;5.40;;;4.87;;
13349;SDS011;6744;53.190;6.576;2022-07-19T05:10:42;5.97;;;4.93;;
13349;SDS011;6744;53.190;6.576;2022-07-19T05:13:07;5.07;;;4.57;;
13349;SDS011;6744;53.190;6.576;2022-07-19T05:15:32;5.63;;;4.80;;
13349;SDS011;6744;53.190;6.576;2022-07-19T05:17:58;5.60;;;5.20;;
13349;SDS011;6744;53.190;6.576;2022-07-19T05:20:23;5.63;;;5.07;;
13349;SDS011;6744;53.190;6.576;2022-07-19T05:22:48;5.17;;;4.67;;
13349;SDS011;6744;53.190;6.576;2022-07-19T05:25:14;5.20;;;4.60;;
13349;SDS011;6744;53.190;6.576;2022-07-19T05:27:40;5.20;;;4.70;;
13349;SDS011;6744;53.190;6.576;2022-07-19T05:30:05;4.90;;;4.40;;
13349;SDS011;6744;53.190;6.576;2022-07-19T05:32:31;5.40;;;4.90;;
13349;SDS011;6744;53.190;6.576;2022-07-19T05:34:57;5.20;;;4.70;;
13349;SDS011;6744;53.190;6.576;2022-07-19T05:37:22;5.50;;;4.77;;
13349;SDS011;6744;53.190;6.576;2022-07-19T05:39:48;5.83;;;5.10;;
13349;SDS011;6744;53.190;6.576;2022-07-19T05:42:13;5.17;;;4.50;;
13349;SDS011;6744;53.190;6.576;2022-07-19T05:44:38;4.87;;;4.47;;
13349;SDS011;6744;53.190;6.576;2022-07-19T05:47:03;4.70;;;4.30;;
13349;SDS011;6744;53.190;6.576;2022-07-19T05:49:29;4.77;;;4.27;;
13349;SDS011;6744;53.190;6.576;2022-07-19T05:51:54;5.30;;;4.67;;
13349;SDS011;6744;53.190;6.576;2022-07-19T05:54:20;6.20;;;5.60;;
13349;SDS011;6744;53.190;6.576;2022-07-19T05:56:45;6.33;;;5.73;;
13349;SDS011;6744;53.190;6.576;2022-07-19T05:59:10;5.67;;;5.07;;
13349;SDS011;6744;53.190;6.576;2022-07-19T06:01:36;6.90;;;5.43;;
13349;SDS011;6744;53.190;6.576;2022-07-19T06:04:01;5.70;;;4.60;;
13349;SDS011;6744;53.190;6.576;2022-07-19T06:06:28;5.43;;;4.93;;
13349;SDS011;6744;53.190;6.576;2022-07-19T06:08:55;5.37;;;4.50;;
13349;SDS011;6744;53.190;6.576;2022-07-19T06:11:21;4.93;;;4.43;;
13349;SDS011;6744;53.190;6.576;2022-07-19T06:13:48;5.00;;;4.50;;
13349;SDS011;6744;53.190;6.576;2022-07-19T06:16:13;5.77;;;4.90;;
13349;SDS011;6744;53.190;6.576;2022-07-19T06:18:39;5.13;;;4.63;;
13349;SDS011;6744;53.190;6.576;2022-07-19T06:21:05;5.67;;;5.03;;
13349;SDS011;6744;53.190;6.576;2022-07-19T06:23:32;4.63;;;4.23;;
13349;SDS011;6744;53.190;6.576;2022-07-19T06:25:57;5.27;;;4.50;;
13349;SDS011;6744;53.190;6.576;2022-07-19T06:28:24;5.80;;;4.70;;
13349;SDS011;6744;53.190;6.576;2022-07-19T06:30:50;4.77;;;4.37;;
13349;SDS011;6744;53.190;6.576;2022-07-19T06:33:15;4.83;;;4.33;;
13349;SDS011;6744;53.190;6.576;2022-07-19T06:35:41;5.43;;;4.80;;
13349;SDS011;6744;53.190;6.576;2022-07-19T06:38:06;6.63;;;5.43;;
13349;SDS011;6744;53.190;6.576;2022-07-19T06:40:33;7.13;;;5.13;;
13349;SDS011;6744;53.190;6.576;2022-07-19T06:42:58;5.50;;;4.50;;
13349;SDS011;6744;53.190;6.576;2022-07-19T06:45:23;6.20;;;4.50;;
13349;SDS011;6744;53.190;6.576;2022-07-19T06:47:49;6.80;;;4.80;;
13349;SDS011;6744;53.190;6.576;2022-07-19T06:50:16;5.10;;;4.20;;
13349;SDS011;6744;53.190;6.576;2022-07-19T06:52:42;7.43;;;4.90;;
13349;SDS011;6744;53.190;6.576;2022-07-19T06:55:07;5.43;;;4.70;;
13349;SDS011;6744;53.190;6.576;2022-07-19T06:57:32;6.03;;;4.47;;
13349;SDS011;6744;53.190;6.576;2022-07-19T06:59:58;5.60;;;4.60;;
13349;SDS011;6744;53.190;6.576;2022-07-19T07:02:23;7.43;;;4.33;;
13349;SDS011;6744;53.190;6.576;2022-07-19T07:04:48;5.13;;;4.63;;
13349;SDS011;6744;53.190;6.576;2022-07-19T07:07:14;5.30;;;4.50;;
13349;SDS011;6744;53.190;6.576;2022-07-19T07:09:39;4.83;;;4.23;;
13349;SDS011;6744;53.190;6.576;2022-07-19T07:12:04;5.30;;;4.80;;
13349;SDS011;6744;53.190;6.576;2022-07-19T07:14:30;4.80;;;4.30;;
13349;SDS011;6744;53.190;6.576;2022-07-19T07:16:55;5.40;;;3.93;;
13349;SDS011;6744;53.190;6.576;2022-07-19T07:19:20;5.27;;;4.33;;
13349;SDS011;6744;53.190;6.576;2022-07-19T07:21:46;5.23;;;4.13;;
13349;SDS011;6744;53.190;6.576;2022-07-19T07:24:11;6.10;;;4.37;;
13349;SDS011;6744;53.190;6.576;2022-07-19T07:26:37;5.93;;;4.20;;
13349;SDS011;6744;53.190;6.576;2022-07-19T07:29:02;4.77;;;4.33;;
13349;SDS011;6744;53.190;6.576;2022-07-19T07:31:28;6.13;;;4.00;;
13349;SDS011;6744;53.190;6.576;2022-07-19T07:33:53;5.40;;;4.10;;
13349;SDS011;6744;53.190;6.576;2022-07-19T07:36:18;5.73;;;3.90;;
13349;SDS011;6744;53.190;6.576;2022-07-19T07:38:43;4.43;;;3.80;;
13349;SDS011;6744;53.190;6.576;2022-07-19T07:41:09;5.30;;;3.80;;
13349;SDS011;6744;53.190;6.576;2022-07-19T07:43:35;4.83;;;3.60;;
13349;SDS011;6744;53.190;6.576;2022-07-19T07:46:00;4.10;;;3.70;;
13349;SDS011;6744;53.190;6.576;2022-07-19T07:48:26;5.83;;;4.00;;
13349;SDS011;6744;53.190;6.576;2022-07-19T07:50:51;5.33;;;3.77;;
13349;SDS011;6744;53.190;6.576;2022-07-19T07:53:17;5.40;;;3.63;;
13349;SDS011;6744;53.190;6.576;2022-07-19T07:55:42;4.20;;;3.63;;
13349;SDS011;6744;53.190;6.576;2022-07-19T07:58:08;6.80;;;4.10;;
13349;SDS011;6744;53.190;6.576;2022-07-19T08:00:35;6.97;;;3.70;;
13349;SDS011;6744;53.190;6.576;2022-07-19T08:03:01;4.33;;;3.67;;
13349;SDS011;6744;53.190;6.576;2022-07-19T08:05:26;5.40;;;3.53;;
13349;SDS011;6744;53.190;6.576;2022-07-19T08:07:52;3.97;;;3.37;;
13349;SDS011;6744;53.190;6.576;2022-07-19T08:10:19;3.97;;;3.60;;
13349;SDS011;6744;53.190;6.576;2022-07-19T08:12:45;4.03;;;3.60;;
13349;SDS011;6744;53.190;6.576;2022-07-19T08:15:11;4.03;;;3.40;;
13349;SDS011;6744;53.190;6.576;2022-07-19T08:17:36;5.47;;;3.47;;
13349;SDS011;6744;53.190;6.576;2022-07-19T08:20:02;5.23;;;3.40;;
13349;SDS011;6744;53.190;6.576;2022-07-19T08:22:28;4.77;;;3.27;;
13349;SDS011;6744;53.190;6.576;2022-07-19T08:24:54;6.00;;;3.87;;
13349;SDS011;6744;53.190;6.576;2022-07-19T08:27:19;5.03;;;3.53;;
13349;SDS011;6744;53.190;6.576;2022-07-19T08:29:44;4.03;;;3.63;;
13349;SDS011;6744;53.190;6.576;2022-07-19T08:32:10;6.17;;;3.30;;
13349;SDS011;6744;53.190;6.576;2022-07-19T08:34:35;5.50;;;3.30;;
13349;SDS011;6744;53.190;6.576;2022-07-19T08:37:00;3.90;;;2.93;;
13349;SDS011;6744;53.190;6.576;2022-07-19T08:39:26;3.80;;;3.40;;
13349;SDS011;6744;53.190;6.576;2022-07-19T08:41:51;3.73;;;3.00;;
13349;SDS011;6744;53.190;6.576;2022-07-19T08:44:17;3.83;;;3.43;;
13349;SDS011;6744;53.190;6.576;2022-07-19T08:46:43;4.60;;;3.43;;
13349;SDS011;6744;53.190;6.576;2022-07-19T08:49:09;5.07;;;3.20;;
13349;SDS011;6744;53.190;6.576;2022-07-19T08:51:35;4.77;;;3.50;;
13349;SDS011;6744;53.190;6.576;2022-07-19T08:54:00;4.47;;;3.20;;
13349;SDS011;6744;53.190;6.576;2022-07-19T08:56:26;4.77;;;3.00;;
13349;SDS011;6744;53.190;6.576;2022-07-19T08:59:10;4.43;;;3.10;;
13349;SDS011;6744;53.190;6.576;2022-07-19T09:01:36;5.60;;;3.20;;
13349;SDS011;6744;53.190;6.576;2022-07-19T09:04:11;3.80;;;2.67;;
13349;SDS011;6744;53.190;6.576;2022-07-19T09:06:55;3.90;;;2.93;;
13349;SDS011;6744;53.190;6.576;2022-07-19T09:09:25;3.60;;;2.80;;
13349;SDS011;6744;53.190;6.576;2022-07-19T09:11:59;4.27;;;2.80;;
13349;SDS011;6744;53.190;6.576;2022-07-19T09:14:26;7.83;;;3.20;;
13349;SDS011;6744;53.190;6.576;2022-07-19T09:17:03;6.13;;;3.00;;
13349;SDS011;6744;53.190;6.576;2022-07-19T09:19:35;4.73;;;2.80;;
13349;SDS011;6744;53.190;6.576;2022-07-19T09:24:33;3.43;;;2.70;;
13349;SDS011;6744;53.190;6.576;2022-07-19T09:27:06;5.77;;;2.60;;
13349;SDS011;6744;53.190;6.576;2022-07-19T09:29:38;4.07;;;2.30;;
13349;SDS011;6744;53.190;6.576;2022-07-19T09:32:06;3.43;;;2.70;;
13349;SDS011;6744;53.190;6.576;2022-07-19T09:34:33;3.87;;;2.57;;
13349;SDS011;6744;53.190;6.576;2022-07-19T09:37:19;4.70;;;2.60;;
13349;SDS011;6744;53.190;6.576;2022-07-19T09:39:50;3.03;;;2.50;;
13349;SDS011;6744;53.190;6.576;2022-07-19T09:42:19;4.70;;;2.43;;
13349;SDS011;6744;53.190;6.576;2022-07-19T09:44:46;4.63;;;2.50;;
13349;SDS011;6744;53.190;6.576;2022-07-19T09:47:12;2.90;;;2.60;;
13349;SDS011;6744;53.190;6.576;2022-07-19T09:49:38;4.50;;;2.60;;
13349;SDS011;6744;53.190;6.576;2022-07-19T09:52:03;4.60;;;2.50;;
13349;SDS011;6744;53.190;6.576;2022-07-19T09:54:29;3.60;;;2.47;;
13349;SDS011;6744;53.190;6.576;2022-07-19T09:56:56;2.93;;;2.43;;
13349;SDS011;6744;53.190;6.576;2022-07-19T09:59:23;3.33;;;2.27;;
13349;SDS011;6744;53.190;6.576;2022-07-19T10:01:50;5.80;;;2.37;;
13349;SDS011;6744;53.190;6.576;2022-07-19T10:04:19;3.70;;;2.20;;
13349;SDS011;6744;53.190;6.576;2022-07-19T10:06:46;5.00;;;2.53;;
13349;SDS011;6744;53.190;6.576;2022-07-19T10:09:13;3.33;;;2.30;;
13349;SDS011;6744;53.190;6.576;2022-07-19T10:11:40;2.67;;;2.27;;
13349;SDS011;6744;53.190;6.576;2022-07-19T10:14:06;2.77;;;2.10;;
13349;SDS011;6744;53.190;6.576;2022-07-19T10:22:07;3.43;;;2.07;;
13349;SDS011;6744;53.190;6.576;2022-07-19T10:29:48;5.50;;;2.63;;
13349;SDS011;6744;53.190;6.576;2022-07-19T10:32:14;3.60;;;1.90;;
13349;SDS011;6744;53.190;6.576;2022-07-19T10:34:40;2.30;;;2.00;;
13349;SDS011;6744;53.190;6.576;2022-07-19T10:37:06;3.40;;;2.17;;
13349;SDS011;6744;53.190;6.576;2022-07-19T10:39:32;3.77;;;2.13;;
13349;SDS011;6744;53.190;6.576;2022-07-19T10:42:10;2.47;;;2.27;;
13349;SDS011;6744;53.190;6.576;2022-07-19T10:45:08;2.17;;;1.97;;
13349;SDS011;6744;53.190;6.576;2022-07-19T10:49:51;2.13;;;1.70;;
13349;SDS011;6744;53.190;6.576;2022-07-19T10:57:42;2.30;;;2.10;;
13349;SDS011;6744;53.190;6.576;2022-07-19T11:00:27;2.20;;;2.00;;
13349;SDS011;6744;53.190;6.576;2022-07-19T11:03:39;3.83;;;2.20;;
13349;SDS011;6744;53.190;6.576;2022-07-19T11:05:47;3.23;;;2.17;;
13349;SDS011;6744;53.190;6.576;2022-07-19T11:08:17;2.83;;;1.90;;
13349;SDS011;6744;53.190;6.576;2022-07-19T11:10:43;3.83;;;2.00;;
13349;SDS011;6744;53.190;6.576;2022-07-19T11:13:10;3.57;;;2.00;;
13349;SDS011;6744;53.190;6.576;2022-07-19T11:15:40;4.30;;;1.90;;
13349;SDS011;6744;53.190;6.576;2022-07-19T11:18:07;2.90;;;1.83;;
13349;SDS011;6744;53.190;6.576;2022-07-19T11:20:33;3.97;;;2.10;;
13349;SDS011;6744;53.190;6.576;2022-07-19T11:23:00;3.10;;;2.00;;
13349;SDS011;6744;53.190;6.576;2022-07-19T11:25:38;3.73;;;1.97;;
13349;SDS011;6744;53.190;6.576;2022-07-19T11:28:06;2.27;;;1.67;;
13349;SDS011;6744;53.190;6.576;2022-07-19T11:30:32;4.43;;;1.80;;
13349;SDS011;6744;53.190;6.576;2022-07-19T11:33:00;4.53;;;2.00;;
13349;SDS011;6744;53.190;6.576;2022-07-19T11:35:27;2.73;;;1.90;;
13349;SDS011;6744;53.190;6.576;2022-07-19T11:37:54;2.83;;;1.80;;
13349;SDS011;6744;53.190;6.576;2022-07-19T11:40:20;2.60;;;1.60;;
13349;SDS011;6744;53.190;6.576;2022-07-19T11:42:47;2.10;;;1.80;;
13349;SDS011;6744;53.190;6.576;2022-07-19T11:45:20;2.57;;;1.87;;
13349;SDS011;6744;53.190;6.576;2022-07-19T11:47:51;2.50;;;1.90;;
13349;SDS011;6744;53.190;6.576;2022-07-19T11:50:19;2.70;;;1.70;;
13349;SDS011;6744;53.190;6.576;2022-07-19T11:52:47;2.20;;;2.00;;
13349;SDS011;6744;53.190;6.576;2022-07-19T11:55:21;2.70;;;1.77;;
13349;SDS011;6744;53.190;6.576;2022-07-19T11:57:47;2.07;;;1.60;;
13349;SDS011;6744;53.190;6.576;2022-07-19T12:00:13;3.30;;;1.90;;
13349;SDS011;6744;53.190;6.576;2022-07-19T12:05:28;2.40;;;1.70;;
13349;SDS011;6744;53.190;6.576;2022-07-19T12:07:57;2.43;;;1.60;;
13349;SDS011;6744;53.190;6.576;2022-07-19T12:12:59;3.13;;;1.97;;
13349;SDS011;6744;53.190;6.576;2022-07-19T12:15:24;2.43;;;1.70;;
13349;SDS011;6744;53.190;6.576;2022-07-19T12:17:56;3.57;;;1.70;;
13349;SDS011;6744;53.190;6.576;2022-07-19T12:20:22;2.70;;;1.57;;
13349;SDS011;6744;53.190;6.576;2022-07-19T12:22:47;2.23;;;1.70;;
13349;SDS011;6744;53.190;6.576;2022-07-19T12:25:13;4.00;;;1.93;;
13349;SDS011;6744;53.190;6.576;2022-07-19T12:27:39;2.07;;;1.73;;
13349;SDS011;6744;53.190;6.576;2022-07-19T12:30:06;1.90;;;1.70;;
13349;SDS011;6744;53.190;6.576;2022-07-19T12:32:41;2.30;;;1.70;;
13349;SDS011;6744;53.190;6.576;2022-07-19T12:35:13;2.73;;;1.63;;
13349;SDS011;6744;53.190;6.576;2022-07-19T12:37:40;2.57;;;1.60;;
13349;SDS011;6744;53.190;6.576;2022-07-19T12:45:01;2.70;;;1.47;;
13349;SDS011;6744;53.190;6.576;2022-07-19T12:47:27;3.80;;;1.63;;
13349;SDS011;6744;53.190;6.576;2022-07-19T12:49:53;1.70;;;1.57;;
13349;SDS011;6744;53.190;6.576;2022-07-19T12:52:18;2.63;;;1.53;;
13349;SDS011;6744;53.190;6.576;2022-07-19T12:54:43;2.27;;;1.63;;
13349;SDS011;6744;53.190;6.576;2022-07-19T12:57:09;3.27;;;1.70;;
13349;SDS011;6744;53.190;6.576;2022-07-19T12:59:34;1.87;;;1.67;;
13349;SDS011;6744;53.190;6.576;2022-07-19T13:02:12;2.30;;;1.60;;
13349;SDS011;6744;53.190;6.576;2022-07-19T13:04:40;6.00;;;1.70;;
13349;SDS011;6744;53.190;6.576;2022-07-19T13:07:06;3.43;;;1.90;;
13349;SDS011;6744;53.190;6.576;2022-07-19T13:09:32;1.83;;;1.50;;
13349;SDS011;6744;53.190;6.576;2022-07-19T13:11:59;2.27;;;1.60;;
13349;SDS011;6744;53.190;6.576;2022-07-19T13:14:29;2.57;;;1.47;;
13349;SDS011;6744;53.190;6.576;2022-07-19T13:16:55;2.23;;;1.63;;
13349;SDS011;6744;53.190;6.576;2022-07-19T13:19:21;2.27;;;1.90;;
13349;SDS011;6744;53.190;6.576;2022-07-19T13:21:46;3.67;;;2.00;;
13349;SDS011;6744;53.190;6.576;2022-07-19T13:24:12;2.23;;;1.60;;
13349;SDS011;6744;53.190;6.576;2022-07-19T13:26:37;2.07;;;1.70;;
13349;SDS011;6744;53.190;6.576;2022-07-19T13:29:02;3.07;;;1.83;;
13349;SDS011;6744;53.190;6.576;2022-07-19T13:31:28;4.27;;;1.83;;
13349;SDS011;6744;53.190;6.576;2022-07-19T13:33:53;3.43;;;1.50;;
13349;SDS011;6744;53.190;6.576;2022-07-19T13:36:19;1.93;;;1.43;;
13349;SDS011;6744;53.190;6.576;2022-07-19T13:38:44;2.77;;;2.00;;
13349;SDS011;6744;53.190;6.576;2022-07-19T13:41:09;1.83;;;1.60;;
13349;SDS011;6744;53.190;6.576;2022-07-19T13:43:35;1.60;;;1.40;;
13349;SDS011;6744;53.190;6.576;2022-07-19T13:46:00;3.37;;;1.60;;
13349;SDS011;6744;53.190;6.576;2022-07-19T13:48:26;1.80;;;1.40;;
13349;SDS011;6744;53.190;6.576;2022-07-19T13:50:51;1.83;;;1.43;;
13349;SDS011;6744;53.190;6.576;2022-07-19T13:53:17;3.33;;;1.50;;
13349;SDS011;6744;53.190;6.576;2022-07-19T13:55:42;3.13;;;1.60;;
13349;SDS011;6744;53.190;6.576;2022-07-19T13:58:08;2.47;;;1.30;;
13349;SDS011;6744;53.190;6.576;2022-07-19T14:00:33;3.00;;;1.93;;
13349;SDS011;6744;53.190;6.576;2022-07-19T14:02:58;2.53;;;1.50;;
13349;SDS011;6744;53.190;6.576;2022-07-19T14:05:24;2.43;;;1.60;;
13349;SDS011;6744;53.190;6.576;2022-07-19T14:07:49;2.50;;;1.40;;
13349;SDS011;6744;53.190;6.576;2022-07-19T14:10:14;1.93;;;1.40;;
13349;SDS011;6744;53.190;6.576;2022-07-19T14:12:40;3.50;;;1.50;;
13349;SDS011;6744;53.190;6.576;2022-07-19T14:15:05;2.27;;;1.40;;
13349;SDS011;6744;53.190;6.576;2022-07-19T14:17:31;2.47;;;1.50;;
13349;SDS011;6744;53.190;6.576;2022-07-19T14:19:56;2.70;;;1.40;;
13349;SDS011;6744;53.190;6.576;2022-07-19T14:22:22;3.47;;;1.50;;
13349;SDS011;6744;53.190;6.576;2022-07-19T14:24:47;1.97;;;1.70;;
13349;SDS011;6744;53.190;6.576;2022-07-19T14:27:12;3.17;;;1.80;;
13349;SDS011;6744;53.190;6.576;2022-07-19T14:29:38;1.60;;;1.50;;
13349;SDS011;6744;53.190;6.576;2022-07-19T14:32:03;1.73;;;1.50;;
13349;SDS011;6744;53.190;6.576;2022-07-19T14:34:29;2.20;;;1.33;;
13349;SDS011;6744;53.190;6.576;2022-07-19T14:36:55;2.97;;;1.23;;
13349;SDS011;6744;53.190;6.576;2022-07-19T14:39:20;2.93;;;1.50;;
13349;SDS011;6744;53.190;6.576;2022-07-19T14:41:45;2.67;;;1.80;;
13349;SDS011;6744;53.190;6.576;2022-07-19T14:44:11;3.53;;;1.87;;
13349;SDS011;6744;53.190;6.576;2022-07-19T14:46:36;2.93;;;1.60;;
13349;SDS011;6744;53.190;6.576;2022-07-19T14:49:01;2.57;;;1.63;;
13349;SDS011;6744;53.190;6.576;2022-07-19T14:51:27;2.20;;;1.47;;
13349;SDS011;6744;53.190;6.576;2022-07-19T14:53:52;3.87;;;1.80;;
13349;SDS011;6744;53.190;6.576;2022-07-19T14:56:17;2.90;;;2.00;;
13349;SDS011;6744;53.190;6.576;2022-07-19T14:58:43;2.57;;;1.60;;
13349;SDS011;6744;53.190;6.576;2022-07-19T15:01:08;3.30;;;1.50;;
13349;SDS011;6744;53.190;6.576;2022-07-19T15:03:34;2.43;;;1.60;;
13349;SDS011;6744;53.190;6.576;2022-07-19T15:06:00;2.57;;;1.73;;
13349;SDS011;6744;53.190;6.576;2022-07-19T15:08:25;1.90;;;1.67;;
13349;SDS011;6744;53.190;6.576;2022-07-19T15:10:51;2.73;;;1.60;;
13349;SDS011;6744;53.190;6.576;2022-07-19T15:13:16;3.33;;;1.60;;
13349;SDS011;6744;53.190;6.576;2022-07-19T15:15:41;1.67;;;1.47;;
13349;SDS011;6744;53.190;6.576;2022-07-19T15:18:07;3.97;;;1.63;;
13349;SDS011;6744;53.190;6.576;2022-07-19T15:20:32;2.67;;;1.40;;
13349;SDS011;6744;53.190;6.576;2022-07-19T15:22:58;3.93;;;1.93;;
13349;SDS011;6744;53.190;6.576;2022-07-19T15:25:24;2.80;;;1.53;;
13349;SDS011;6744;53.190;6.576;2022-07-19T15:27:49;2.23;;;1.60;;